Time;durP1;ratioP1;P1;durP2;ratioP2;P2;SDS_P1;SDS_P2;PMS_P1;PMS_P2;Temp;Humidity;BMP_temperature;BMP_pressure;BME280_temperature;BME280_humidity;BME280_pressure;Samples;Min_cycle;Max_cycle;Signal;HPM_P1;HPM_P2
2023/07/23 00:01:39;;;;;;;7.70;4.60;;;;;;;21.09;51.80;100212.06;4109408;28;20046;-62
2023/07/23 00:03:42;;;;;;;10.30;4.28;;;;;;;21.06;51.84;100213.03;4106878;28;20046;-62
2023/07/23 00:05:46;;;;;;;6.40;4.20;;;;;;;21.03;51.56;100209.63;4113525;28;20059;-62
2023/07/23 00:07:48;;;;;;;6.97;3.80;;;;;;;20.99;52.18;100215.94;4113699;28;20126;-62
2023/07/23 00:09:53;;;;;;;6.35;3.97;;;;;;;20.99;51.95;100213.28;4102200;28;20467;-62
2023/07/23 00:11:55;;;;;;;6.25;4.40;;;;;;;20.96;52.25;100213.38;4114911;28;20042;-62
2023/07/23 00:13:58;;;;;;;6.57;3.92;;;;;;;20.96;52.45;100208.09;4112698;28;20047;-62
2023/07/23 00:16:01;;;;;;;7.75;4.50;;;;;;;20.95;52.52;100211.66;4098767;29;20043;-62
2023/07/23 00:18:05;;;;;;;6.53;4.17;;;;;;;20.92;52.54;100210.84;4111200;28;20097;-62
2023/07/23 00:20:09;;;;;;;6.95;3.97;;;;;;;20.90;52.82;100203.88;4111610;28;20045;-62
2023/07/23 00:22:12;;;;;;;9.70;4.88;;;;;;;20.89;52.99;100202.13;4114397;28;20050;-64
2023/07/23 00:24:15;;;;;;;10.25;4.45;;;;;;;20.84;53.41;100202.28;4114508;28;20046;-61
2023/07/23 00:26:19;;;;;;;7.25;4.57;;;;;;;20.80;53.51;100205.94;4115016;28;20042;-62
2023/07/23 00:28:22;;;;;;;6.72;4.00;;;;;;;20.78;53.49;100207.78;4111879;28;20031;-62
2023/07/23 00:30:25;;;;;;;5.93;3.75;;;;;;;20.72;53.27;100206.19;4108956;28;20047;-63
2023/07/23 00:32:28;;;;;;;5.00;3.40;;;;;;;20.69;53.43;100202.78;4114798;28;20067;-62
2023/07/23 00:34:31;;;;;;;6.90;4.15;;;;;;;20.62;53.61;100204.72;4112914;28;20090;-62
2023/07/23 00:36:33;;;;;;;5.85;4.28;;;;;;;20.61;53.79;100202.13;4107368;28;20576;-62
2023/07/23 00:38:36;;;;;;;6.45;4.18;;;;;;;20.57;53.84;100204.88;4113254;28;20034;-60
2023/07/23 00:40:39;;;;;;;6.13;4.20;;;;;;;20.52;53.87;100201.50;4113215;28;20114;-64
2023/07/23 00:42:42;;;;;;;7.15;4.25;;;;;;;20.48;54.05;100201.66;4113490;28;20043;-64
2023/07/23 00:44:47;;;;;;;5.07;3.78;;;;;;;20.40;54.32;100208.03;4112944;28;20054;-61
2023/07/23 00:46:51;;;;;;;6.53;4.50;;;;;;;20.42;54.39;100207.13;4112876;28;20038;-61
2023/07/23 00:48:55;;;;;;;7.10;4.40;;;;;;;20.40;54.29;100204.53;4106738;28;20065;-62
2023/07/23 00:50:58;;;;;;;8.23;4.37;;;;;;;20.37;54.49;100209.88;4113103;28;20126;-62
2023/07/23 00:53:01;;;;;;;7.38;4.65;;;;;;;20.34;54.79;100199.41;4110654;28;20174;-62
2023/07/23 00:55:05;;;;;;;8.95;4.20;;;;;;;20.31;54.91;100204.78;4115025;28;20039;-62
2023/07/23 00:57:11;;;;;;;8.30;3.97;;;;;;;20.25;54.80;100199.72;4100021;28;20082;-62
2023/07/23 00:59:15;;;;;;;6.82;4.20;;;;;;;20.20;55.02;100198.06;4113769;28;20055;-62
2023/07/23 01:01:18;;;;;;;6.40;4.22;;;;;;;20.18;55.01;100199.91;4115213;28;20074;-62
2023/07/23 01:03:21;;;;;;;7.55;4.63;;;;;;;20.15;55.17;100200.00;4112668;28;20122;-62
2023/07/23 01:05:24;;;;;;;7.50;4.35;;;;;;;20.13;55.22;100201.78;4114581;28;20511;-62
2023/07/23 01:07:32;;;;;;;8.57;4.10;;;;;;;20.12;55.66;100194.81;4115091;28;20471;-63
2023/07/23 01:09:36;;;;;;;6.00;4.18;;;;;;;20.11;55.85;100190.44;4110191;28;20058;-62
2023/07/23 01:11:39;;;;;;;5.57;3.97;;;;;;;20.12;55.92;100189.53;4113825;28;20420;-62
2023/07/23 01:13:44;;;;;;;5.57;4.15;;;;;;;20.11;56.57;100193.06;4113048;28;20094;-63
2023/07/23 01:15:49;;;;;;;9.27;4.45;;;;;;;20.08;56.95;100185.25;4110377;28;20039;-62
2023/07/23 01:17:53;;;;;;;6.28;4.53;;;;;;;20.04;56.78;100181.81;4111913;28;21510;-63
2023/07/23 01:20:04;;;;;;;7.68;4.65;;;;;;;20.01;56.89;100186.34;4114453;28;20058;-62
2023/07/23 01:22:08;;;;;;;9.93;4.25;;;;;;;19.98;57.16;100186.44;4114194;28;20038;-62
2023/07/23 01:24:10;;;;;;;7.88;4.40;;;;;;;19.93;57.70;100188.31;4111385;28;20429;-62
2023/07/23 01:26:14;;;;;;;8.23;4.47;;;;;;;19.88;57.92;100181.41;4114537;28;20074;-62
2023/07/23 01:28:17;;;;;;;5.88;4.13;;;;;;;19.86;58.11;100182.38;4127981;28;20042;-62
2023/07/23 01:30:20;;;;;;;7.20;5.00;;;;;;;19.82;58.97;100184.22;4113053;28;20038;-63
2023/07/23 01:32:23;;;;;;;8.52;4.80;;;;;;;19.78;59.16;100174.66;4113382;28;20030;-62
2023/07/23 01:34:27;;;;;;;6.28;4.18;;;;;;;19.78;58.73;100179.94;4116632;28;20089;-62
2023/07/23 01:36:30;;;;;;;8.75;4.75;;;;;;;19.76;58.51;100176.47;4113246;28;20565;-63
2023/07/23 01:38:34;;;;;;;8.77;5.10;;;;;;;19.77;58.53;100167.66;4113011;28;20075;-62
2023/07/23 01:40:38;;;;;;;7.57;4.85;;;;;;;19.74;58.31;100175.63;4115383;28;20408;-62
2023/07/23 01:42:41;;;;;;;6.82;4.13;;;;;;;19.71;58.37;100179.22;4110944;28;20043;-63
2023/07/23 01:44:44;;;;;;;8.77;5.15;;;;;;;19.69;57.89;100177.53;4127602;28;20046;-62
2023/07/23 01:46:47;;;;;;;9.13;4.45;;;;;;;19.63;58.17;100168.03;4111643;28;20078;-62
2023/07/23 01:48:50;;;;;;;8.63;4.65;;;;;;;19.60;57.56;100170.75;4113206;28;20046;-62
2023/07/23 01:50:53;;;;;;;7.05;4.72;;;;;;;19.56;57.80;100168.25;4094379;28;20069;-61
2023/07/23 01:52:55;;;;;;;9.35;4.80;;;;;;;19.50;57.68;100167.50;4126430;28;20575;-61
2023/07/23 01:54:59;;;;;;;10.05;4.63;;;;;;;19.48;57.58;100168.47;4127384;28;20057;-62
2023/07/23 01:57:03;;;;;;;8.05;4.60;;;;;;;19.45;57.43;100169.41;4107142;28;20043;-62
2023/07/23 01:59:05;;;;;;;10.90;4.60;;;;;;;19.41;57.50;100167.75;4111631;28;20473;-62
2023/07/23 02:01:08;;;;;;;8.43;4.28;;;;;;;19.40;57.02;100163.38;4112619;28;20038;-62
2023/07/23 02:03:10;;;;;;;5.53;4.00;;;;;;;19.36;57.17;100167.00;4111893;28;20039;-62
2023/07/23 02:05:14;;;;;;;8.55;4.60;;;;;;;19.35;57.72;100158.22;4097768;28;20492;-62
2023/07/23 02:07:17;;;;;;;9.67;4.40;;;;;;;19.33;57.44;100156.53;4111879;28;20373;-62
2023/07/23 02:09:20;;;;;;;6.18;4.00;;;;;;;19.30;57.44;100159.25;4110031;28;20290;-63
2023/07/23 02:11:24;;;;;;;9.20;4.45;;;;;;;19.28;57.55;100155.81;4106992;28;20424;-63
2023/07/23 02:13:28;;;;;;;7.10;4.03;;;;;;;19.27;57.17;100156.72;4112120;28;20133;-62
2023/07/23 02:15:31;;;;;;;7.35;4.50;;;;;;;19.26;57.25;100149.69;4112738;28;20043;-63
2023/07/23 02:17:34;;;;;;;6.40;4.25;;;;;;;19.25;57.60;100151.47;4111436;28;20049;-63
2023/07/23 02:19:37;;;;;;;6.78;4.07;;;;;;;19.25;57.10;100155.91;4111528;28;20137;-63
2023/07/23 02:21:40;;;;;;;8.88;5.15;;;;;;;19.23;57.50;100150.66;4112542;28;20449;-63
2023/07/23 02:23:43;;;;;;;7.68;4.78;;;;;;;19.19;57.23;100154.28;4113086;28;20045;-63
2023/07/23 02:25:47;;;;;;;5.55;3.78;;;;;;;19.16;57.48;100154.38;4109936;28;20046;-63
2023/07/23 02:27:52;;;;;;;6.28;4.13;;;;;;;19.15;56.84;100150.84;4111823;28;20066;-63
2023/07/23 02:29:54;;;;;;;8.88;4.55;;;;;;;19.12;56.63;100152.72;4093605;28;20058;-63
2023/07/23 02:31:57;;;;;;;5.90;3.88;;;;;;;19.07;57.10;100160.75;4120560;28;20100;-63
2023/07/23 02:34:00;;;;;;;7.13;4.40;;;;;;;19.07;57.11;100158.09;4105535;28;20479;-63
2023/07/23 02:36:03;;;;;;;6.75;4.03;;;;;;;19.05;57.39;100157.25;4109970;28;20043;-63
2023/07/23 02:38:07;;;;;;;6.93;4.13;;;;;;;19.01;57.09;100151.22;4093636;29;20053;-63
2023/07/23 02:40:11;;;;;;;7.93;3.83;;;;;;;18.96;57.14;100150.47;4105950;28;20475;-63
2023/07/23 02:42:13;;;;;;;6.60;4.57;;;;;;;18.98;57.38;100155.69;4124794;28;20041;-63
2023/07/23 02:44:18;;;;;;;6.63;4.35;;;;;;;18.98;57.16;100158.31;4104023;28;20043;-63
2023/07/23 02:46:21;;;;;;;6.45;4.15;;;;;;;18.94;57.36;100159.28;4099986;28;20043;-63
2023/07/23 02:48:24;;;;;;;7.32;4.30;;;;;;;18.94;57.29;100159.28;4119535;28;20034;-63
2023/07/23 02:50:27;;;;;;;7.25;4.47;;;;;;;18.92;57.54;100155.84;4107813;28;20424;-63
2023/07/23 02:52:30;;;;;;;5.78;4.10;;;;;;;18.91;57.28;100157.63;4108248;28;20042;-63
2023/07/23 02:54:33;;;;;;;6.80;4.22;;;;;;;18.91;57.58;100156.75;4108526;28;20038;-63
2023/07/23 02:56:36;;;;;;;5.80;3.78;;;;;;;18.86;57.43;100148.06;4111063;28;20603;-63
2023/07/23 02:58:39;;;;;;;7.63;4.43;;;;;;;18.89;57.25;100151.50;4107612;28;20472;-63
2023/07/23 03:00:45;;;;;;;6.43;4.00;;;;;;;18.82;57.31;100161.31;4096800;28;20082;-63
2023/07/23 03:02:59;;;;;;;7.65;4.68;;;;;;;18.69;57.56;100132.69;4110252;28;20125;-63
2023/07/23 03:05:03;;;;;;;8.00;4.18;;;;;;;18.72;57.74;100162.44;4094008;28;20473;-65
2023/07/23 03:07:09;;;;;;;7.20;4.25;;;;;;;18.70;57.80;100155.50;4096111;28;20042;-65
2023/07/23 03:09:12;;;;;;;6.07;4.20;;;;;;;18.67;57.63;100151.16;4081373;29;20047;-64
2023/07/23 03:11:18;;;;;;;6.90;4.05;;;;;;;18.61;58.11;100153.94;4083397;29;20506;-65
2023/07/23 03:13:21;;;;;;;6.88;4.00;;;;;;;18.60;58.14;100157.47;4080228;29;20099;-65
2023/07/23 03:15:24;;;;;;;6.13;3.92;;;;;;;18.58;57.97;100152.25;4079556;29;20036;-64
2023/07/23 03:17:28;;;;;;;9.00;4.68;;;;;;;18.59;58.19;100155.75;4080469;29;20067;-64
2023/07/23 03:19:31;;;;;;;7.55;4.65;;;;;;;18.56;58.32;100154.06;4077057;29;20036;-64
2023/07/23 03:21:34;;;;;;;8.45;4.55;;;;;;;18.66;57.43;100152.03;4080956;29;20035;-64
2023/07/23 03:23:37;;;;;;;6.97;4.60;;;;;;;18.60;57.88;100149.56;4063378;29;20193;-64
2023/07/23 03:25:40;;;;;;;5.82;3.60;;;;;;;18.54;57.83;100147.09;4069739;29;20511;-64
2023/07/23 03:27:43;;;;;;;5.63;3.72;;;;;;;18.52;57.93;100147.13;4064064;29;20135;-64
2023/07/23 03:29:46;;;;;;;5.45;3.50;;;;;;;18.51;58.17;100144.53;4085479;29;20044;-64
2023/07/23 03:31:49;;;;;;;8.63;3.90;;;;;;;18.48;58.32;100148.94;4081395;29;20050;-64
2023/07/23 03:33:53;;;;;;;5.28;3.55;;;;;;;18.52;58.40;100146.28;4080257;29;20497;-64
2023/07/23 03:35:56;;;;;;;6.20;4.05;;;;;;;18.48;58.24;100141.06;4063419;29;20534;-64
2023/07/23 03:38:00;;;;;;;6.32;4.30;;;;;;;18.52;58.23;100143.66;4063328;29;20036;-64
2023/07/23 03:40:03;;;;;;;9.57;4.10;;;;;;;18.54;58.57;100139.19;4080168;29;20146;-64
2023/07/23 03:42:06;;;;;;;6.68;3.78;;;;;;;18.54;58.24;100147.09;4079168;29;20525;-64
2023/07/23 03:44:09;;;;;;;5.35;3.97;;;;;;;18.53;58.25;100146.22;4080946;29;20043;-65
2023/07/23 03:46:12;;;;;;;6.03;4.13;;;;;;;18.52;58.60;100154.16;4080160;29;20486;-65
2023/07/23 03:48:15;;;;;;;6.18;3.90;;;;;;;18.61;58.42;100153.94;4078074;29;20043;-65
2023/07/23 03:50:19;;;;;;;9.55;4.20;;;;;;;18.51;58.46;100155.06;4067416;29;20032;-64
2023/07/23 03:52:23;;;;;;;6.75;3.85;;;;;;;18.65;58.52;100145.06;4063591;29;20135;-65
2023/07/23 03:54:26;;;;;;;8.75;4.00;;;;;;;18.53;58.74;100148.88;4047825;29;20060;-65
2023/07/23 03:56:30;;;;;;;6.70;3.90;;;;;;;18.47;59.13;100155.13;4078699;29;20063;-65
2023/07/23 03:58:33;;;;;;;9.05;4.07;;;;;;;18.54;58.86;100152.34;4063754;29;20040;-65
2023/07/23 04:00:38;;;;;;;11.23;3.53;;;;;;;18.54;59.08;100150.56;4078516;29;20040;-65
2023/07/23 04:02:41;;;;;;;;;;;;;;;18.42;59.66;100149.09;4064001;29;20083;-65
2023/07/23 04:04:44;;;;;;;7.65;3.92;;;;;;;18.53;59.14;100158.50;4080529;29;19958;-65
2023/07/23 04:06:48;;;;;;;6.85;4.35;;;;;;;18.61;59.11;100152.16;4062941;29;20490;-65
2023/07/23 04:08:50;;;;;;;4.47;3.08;;;;;;;18.60;59.25;100145.19;4063732;29;20040;-65
2023/07/23 04:10:55;;;;;;;7.93;4.20;;;;;;;18.62;59.48;100153.91;4079431;29;20716;-65
2023/07/23 04:12:57;;;;;;;7.88;4.53;;;;;;;18.71;59.28;100146.69;4078237;29;20044;-64
2023/07/23 04:15:02;;;;;;;6.50;3.80;;;;;;;18.70;58.96;100151.06;4078332;29;20038;-65
2023/07/23 04:17:05;;;;;;;6.05;3.67;;;;;;;18.70;59.18;100152.84;4079600;29;20039;-65
2023/07/23 04:19:08;;;;;;;11.15;4.20;;;;;;;18.77;58.61;100155.28;4080509;29;20072;-65
2023/07/23 04:21:10;;;;;;;8.05;3.80;;;;;;;18.73;58.97;100158.91;4064417;29;20052;-65
2023/07/23 04:23:14;;;;;;;5.10;3.80;;;;;;;18.74;59.09;100165.06;4063159;29;20046;-65
2023/07/23 04:25:17;;;;;;;6.68;3.70;;;;;;;18.81;58.81;100159.59;4077248;29;20497;-65
2023/07/23 04:27:20;;;;;;;5.97;3.50;;;;;;;18.79;57.81;100157.88;4068959;29;20515;-65
2023/07/23 04:29:23;;;;;;;5.55;3.70;;;;;;;18.84;58.04;100159.50;4078675;29;20039;-65
2023/07/23 04:31:25;;;;;;;5.32;3.38;;;;;;;18.79;58.53;100161.41;4061905;29;20126;-65
2023/07/23 04:33:28;;;;;;;4.30;3.45;;;;;;;18.78;57.97;100167.56;4078410;29;20039;-65
2023/07/23 04:35:31;;;;;;;6.57;4.00;;;;;;;18.81;57.86;100167.47;4078653;29;20130;-65
2023/07/23 04:37:34;;;;;;;6.60;3.72;;;;;;;18.84;57.54;100170.03;4093644;29;20031;-65
2023/07/23 04:39:37;;;;;;;6.38;3.67;;;;;;;18.90;57.37;100163.78;4062463;29;20072;-65
2023/07/23 04:41:40;;;;;;;6.22;3.72;;;;;;;18.92;57.24;100161.13;4079753;29;20500;-65
2023/07/23 04:43:43;;;;;;;5.78;3.28;;;;;;;18.96;57.03;100168.03;4062857;29;21563;-65
2023/07/23 04:45:46;;;;;;;7.18;3.15;;;;;;;18.99;56.20;100170.59;4079980;29;20570;-65
2023/07/23 04:47:49;;;;;;;6.25;3.38;;;;;;;19.07;57.09;100175.66;4064175;29;20040;-65
2023/07/23 04:49:51;;;;;;;6.57;3.58;;;;;;;19.13;56.69;100176.38;4094290;29;20527;-64
2023/07/23 04:51:54;;;;;;;6.15;3.47;;;;;;;19.21;56.96;100172.69;4082296;29;20048;-64
2023/07/23 04:53:57;;;;;;;8.88;3.70;;;;;;;19.24;56.00;100173.47;4078889;29;20074;-64
2023/07/23 04:56:03;;;;;;;7.95;3.40;;;;;;;19.29;55.72;100176.84;4065199;29;20514;-64
2023/07/23 04:58:06;;;;;;;6.43;3.58;;;;;;;19.30;55.62;100180.34;4080345;29;20044;-64
2023/07/23 05:00:10;;;;;;;6.07;3.83;;;;;;;19.32;55.38;100182.03;4082309;29;20042;-64
2023/07/23 05:02:13;;;;;;;3.90;2.70;;;;;;;19.32;55.02;100181.19;4088453;29;20588;-64
2023/07/23 05:04:15;;;;;;;7.18;3.75;;;;;;;19.38;54.30;100190.69;4080334;29;20296;-64
2023/07/23 05:06:18;;;;;;;5.60;3.63;;;;;;;19.29;54.74;100194.41;4082550;29;20043;-64
2023/07/23 05:08:22;;;;;;;7.13;3.50;;;;;;;19.38;54.49;100188.03;4066124;29;20036;-64
2023/07/23 05:10:25;;;;;;;7.38;3.80;;;;;;;19.32;54.94;100191.72;4082480;29;20424;-65
2023/07/23 05:12:29;;;;;;;4.72;3.30;;;;;;;19.31;54.80;100188.22;4082744;29;20493;-64
2023/07/23 05:14:34;;;;;;;7.28;3.90;;;;;;;19.30;54.88;100188.25;4081127;29;20768;-64
2023/07/23 05:16:37;;;;;;;7.18;3.38;;;;;;;19.31;55.23;100190.00;4082964;29;20043;-64
2023/07/23 05:18:39;;;;;;;5.03;3.30;;;;;;;19.39;55.19;100189.78;4082121;29;20047;-64
2023/07/23 05:20:42;;;;;;;6.25;3.90;;;;;;;19.46;54.91;100188.72;4082678;29;20039;-64
2023/07/23 05:22:45;;;;;;;3.67;2.30;;;;;;;19.38;54.38;100186.28;4082520;29;20066;-64
2023/07/23 05:24:48;;;;;;;6.38;3.65;;;;;;;19.39;54.83;100181.88;4065770;29;20040;-64
2023/07/23 05:26:51;;;;;;;8.73;3.60;;;;;;;19.38;54.56;100181.03;4082571;29;20118;-64
2023/07/23 05:28:55;;;;;;;10.18;3.60;;;;;;;19.57;54.21;100177.88;4082513;29;20410;-64
2023/07/23 05:30:59;;;;;;;7.60;3.60;;;;;;;19.46;54.84;100183.44;4082812;29;20040;-64
2023/07/23 05:33:03;;;;;;;3.90;2.90;;;;;;;19.37;55.08;100184.56;4087906;29;20517;-64
2023/07/23 05:35:10;;;;;;;7.10;3.45;;;;;;;19.49;54.57;100188.63;4064892;29;20044;-64
2023/07/23 05:37:13;;;;;;;4.78;2.88;;;;;;;19.50;53.88;100183.31;4065043;29;20131;-64
2023/07/23 05:39:17;;;;;;;4.70;3.05;;;;;;;19.58;54.31;100190.16;4078768;29;20058;-64
2023/07/23 05:41:20;;;;;;;10.50;3.53;;;;;;;19.76;53.76;100188.78;4081871;29;20040;-64
2023/07/23 05:43:23;;;;;;;6.22;3.28;;;;;;;19.74;53.68;100182.69;4084116;29;20055;-64
2023/07/23 05:45:30;;;;;;;7.32;3.40;;;;;;;19.73;53.29;100184.47;4080382;29;20036;-64
2023/07/23 05:47:33;;;;;;;5.78;3.22;;;;;;;19.69;53.21;100188.09;4079395;29;20047;-64
2023/07/23 05:49:36;;;;;;;6.05;3.17;;;;;;;19.77;53.24;100180.84;4066843;29;20317;-64
2023/07/23 05:51:39;;;;;;;4.60;3.10;;;;;;;19.79;53.29;100178.19;4088567;29;20041;-64
2023/07/23 05:53:41;;;;;;;6.03;3.53;;;;;;;19.91;52.61;100176.97;4079893;29;20139;-64
2023/07/23 05:55:43;;;;;;;4.95;3.13;;;;;;;20.01;52.50;100186.34;4066015;29;20044;-64
2023/07/23 05:57:46;;;;;;;4.72;2.70;;;;;;;19.99;52.85;100182.88;4081316;29;20040;-64
2023/07/23 05:59:49;;;;;;;4.18;3.05;;;;;;;20.04;53.09;100184.47;4081605;29;20570;-64
2023/07/23 06:01:54;;;;;;;4.35;2.85;;;;;;;20.19;53.14;100188.44;4080943;29;20046;-64
2023/07/23 06:03:56;;;;;;;4.53;2.83;;;;;;;20.24;52.45;100183.03;4081795;29;20046;-64
2023/07/23 06:05:59;;;;;;;6.47;2.85;;;;;;;20.20;52.41;100184.88;4063797;29;20104;-64
2023/07/23 06:08:02;;;;;;;5.65;2.95;;;;;;;20.33;52.87;100187.16;4078722;29;20040;-64
2023/07/23 06:10:06;;;;;;;4.55;2.85;;;;;;;20.41;52.01;100185.13;4079129;29;20038;-63
2023/07/23 06:12:09;;;;;;;4.80;2.65;;;;;;;20.41;52.50;100185.13;4080957;29;20051;-63
2023/07/23 06:14:11;;;;;;;4.75;2.85;;;;;;;20.45;52.52;100183.28;4079219;29;20047;-64
2023/07/23 06:16:14;;;;;;;4.85;2.70;;;;;;;20.52;52.29;100196.22;4077938;29;20047;-59
2023/07/23 06:18:18;;;;;;;6.80;2.90;;;;;;;20.69;51.74;100184.28;4078622;29;20051;-60
2023/07/23 06:20:21;;;;;;;5.30;3.10;;;;;;;20.89;50.97;100191.56;4084233;29;20063;-60
2023/07/23 06:22:25;;;;;;;3.85;2.53;;;;;;;21.00;50.64;100185.94;4081217;29;20071;-60
2023/07/23 06:24:28;;;;;;;4.85;2.53;;;;;;;21.15;50.33;100187.19;4048333;29;20044;-60
2023/07/23 06:26:31;;;;;;;4.90;3.08;;;;;;;21.34;49.74;100182.16;4081757;29;20141;-60
2023/07/23 06:28:33;;;;;;;5.10;2.30;;;;;;;21.22;49.66;100189.56;4079258;29;20039;-60
2023/07/23 06:30:36;;;;;;;6.93;2.60;;;;;;;21.34;49.61;100184.78;4078580;29;20042;-60
2023/07/23 06:32:39;;;;;;;5.30;3.00;;;;;;;21.44;49.64;100186.19;4080658;29;20074;-60
2023/07/23 06:34:44;;;;;;;5.97;3.15;;;;;;;21.52;49.42;100185.94;4080215;29;20044;-60
2023/07/23 06:36:47;;;;;;;3.80;2.50;;;;;;;21.66;49.09;100180.16;4079844;29;20079;-60
2023/07/23 06:38:50;;;;;;;6.10;2.70;;;;;;;21.55;49.60;100183.19;4078589;29;20417;-61
2023/07/23 06:40:54;;;;;;;6.22;2.60;;;;;;;21.53;49.24;100185.88;4081247;29;20044;-63
2023/07/23 06:43:00;;;;;;;8.30;3.30;;;;;;;21.69;48.71;100188.84;4064380;29;20063;-63
2023/07/23 06:45:03;;;;;;;4.78;2.42;;;;;;;21.71;48.87;100188.78;4079417;29;20062;-63
2023/07/23 06:47:06;;;;;;;6.13;3.15;;;;;;;21.88;48.95;100183.75;4079136;29;20429;-64
2023/07/23 06:49:12;;;;;;;4.28;2.50;;;;;;;22.06;48.48;100184.81;4081030;29;20070;-63
2023/07/23 06:51:16;;;;;;;5.22;2.78;;;;;;;22.10;48.22;100182.94;4081619;29;20514;-64
2023/07/23 06:53:19;;;;;;;4.18;2.22;;;;;;;22.20;48.04;100179.00;4080254;29;21523;-60
2023/07/23 06:55:22;;;;;;;4.00;2.45;;;;;;;22.35;47.88;100176.72;4080192;29;20133;-65
2023/07/23 06:57:25;;;;;;;4.05;2.50;;;;;;;22.36;47.52;100168.72;4081512;29;20290;-61
2023/07/23 06:59:28;;;;;;;3.78;2.13;;;;;;;22.69;47.41;100172.72;4075929;29;20504;-64
2023/07/23 07:01:31;;;;;;;6.53;2.88;;;;;;;22.55;47.22;100174.16;4080675;29;20090;-61
2023/07/23 07:03:34;;;;;;;3.70;1.88;;;;;;;22.73;46.49;100169.88;4079576;29;20102;-62
2023/07/23 07:05:37;;;;;;;3.35;1.90;;;;;;;22.66;46.97;100166.63;4062438;29;21483;-61
2023/07/23 07:07:41;;;;;;;4.82;2.10;;;;;;;22.95;46.26;100156.59;4062228;29;20127;-62
2023/07/23 07:09:44;;;;;;;2.55;1.95;;;;;;;22.93;46.65;100173.50;4080068;29;20528;-62
2023/07/23 07:11:47;;;;;;;3.75;2.25;;;;;;;22.97;46.54;100165.34;4081188;29;20079;-62
2023/07/23 07:13:51;;;;;;;3.53;2.20;;;;;;;23.07;46.08;100170.25;4062900;29;20072;-60
2023/07/23 07:15:54;;;;;;;5.55;2.38;;;;;;;23.07;46.19;100168.50;4078371;29;20536;-61
2023/07/23 07:17:57;;;;;;;3.33;2.33;;;;;;;22.97;46.46;100162.72;4080172;29;20056;-61
2023/07/23 07:19:59;;;;;;;3.75;2.10;;;;;;;23.02;46.20;100168.66;4053075;29;20048;-61
2023/07/23 07:22:02;;;;;;;4.15;1.92;;;;;;;23.01;46.37;100174.03;4080169;29;20035;-61
2023/07/23 07:24:07;;;;;;;3.95;2.00;;;;;;;23.01;46.43;100176.69;4078657;29;20040;-60
2023/07/23 07:26:09;;;;;;;3.47;2.13;;;;;;;23.04;46.66;100171.25;4079266;29;20059;-60
2023/07/23 07:28:12;;;;;;;3.95;2.15;;;;;;;23.29;46.12;100171.13;4085411;29;20047;-60
2023/07/23 07:30:15;;;;;;;4.68;2.60;;;;;;;23.31;46.50;100171.91;4077168;29;20054;-61
2023/07/23 07:32:18;;;;;;;4.47;2.15;;;;;;;23.33;46.36;100170.06;4079580;29;20051;-60
2023/07/23 07:34:21;;;;;;;2.83;1.70;;;;;;;23.37;46.49;100172.56;4079727;29;20102;-60
2023/07/23 07:36:24;;;;;;;4.72;2.17;;;;;;;23.46;46.11;100164.19;4049656;29;20138;-61
2023/07/23 07:38:28;;;;;;;3.80;1.90;;;;;;;23.54;46.45;100170.03;4063579;29;20070;-61
2023/07/23 07:40:32;;;;;;;2.90;1.90;;;;;;;23.54;46.07;100170.03;4078332;29;20561;-61
2023/07/23 07:42:35;;;;;;;2.20;1.70;;;;;;;23.55;46.55;100163.78;4080918;29;20039;-61
2023/07/23 07:44:38;;;;;;;3.25;1.75;;;;;;;23.68;45.96;100167.63;4077801;29;20039;-60
2023/07/23 07:46:41;;;;;;;2.72;1.70;;;;;;;23.63;46.05;100153.69;4078997;29;20036;-60
2023/07/23 07:48:44;;;;;;;4.63;1.45;;;;;;;23.68;45.63;100161.44;4080149;29;20074;-62
2023/07/23 07:50:49;;;;;;;4.25;1.77;;;;;;;23.62;45.44;100159.94;4079703;29;20035;-60
2023/07/23 07:52:52;;;;;;;2.35;1.40;;;;;;;23.60;45.25;100164.44;4079457;29;20071;-61
2023/07/23 07:54:54;;;;;;;5.45;1.40;;;;;;;23.54;45.55;100167.38;4079061;29;20047;-61
2023/07/23 07:56:58;;;;;;;2.80;1.77;;;;;;;23.49;45.54;100161.41;4079760;29;20044;-60
2023/07/23 07:59:02;;;;;;;5.28;2.28;;;;;;;23.56;45.80;100162.00;4080284;29;20063;-61
2023/07/23 08:01:08;;;;;;;5.25;1.55;;;;;;;23.52;46.26;100162.16;4059632;29;20048;-60
2023/07/23 08:03:11;;;;;;;4.50;1.60;;;;;;;23.59;45.88;100160.06;4062946;29;20130;-63
2023/07/23 08:05:15;;;;;;;7.07;1.70;;;;;;;23.56;45.82;100173.47;4079878;29;20054;-63
2023/07/23 08:07:21;;;;;;;6.75;1.50;;;;;;;23.54;45.64;100170.03;4079210;29;20139;-63
2023/07/23 08:09:25;;;;;;;4.75;1.27;;;;;;;23.55;46.11;100174.41;4077384;29;20056;-63
2023/07/23 08:11:28;;;;;;;7.05;1.70;;;;;;;23.58;45.70;100176.91;4080054;29;20035;-63
2023/07/23 08:16:38;;;;;;;5.78;1.95;;;;;;;23.58;45.51;100170.75;4106801;28;20314;-63
2023/07/23 08:18:41;;;;;;;5.18;1.70;;;;;;;23.62;45.60;100175.00;4112173;28;20130;-63
2023/07/23 08:20:46;;;;;;;12.30;1.52;;;;;;;23.60;45.04;100172.41;4110815;28;20058;-63
2023/07/23 08:22:49;;;;;;;2.90;1.20;;;;;;;23.61;45.25;100170.59;4108633;28;20042;-63
2023/07/23 08:24:53;;;;;;;4.10;1.70;;;;;;;23.58;45.14;100173.41;4112333;28;20041;-63
2023/07/23 08:26:58;;;;;;;5.40;1.60;;;;;;;23.56;45.60;100175.28;4119131;23;20063;-59
2023/07/23 08:29:07;;;;;;;5.65;1.63;;;;;;;23.59;45.67;100168.03;4112665;28;20177;-59
2023/07/23 08:31:11;;;;;;;3.30;1.45;;;;;;;23.52;45.63;100167.47;4110138;28;20039;-59
2023/07/23 08:33:17;;;;;;;3.30;1.45;;;;;;;23.42;45.96;100162.59;4113819;28;20042;-59
2023/07/23 08:35:21;;;;;;;3.17;1.10;;;;;;;23.43;46.23;100161.69;4094337;29;20046;-59
2023/07/23 08:37:25;;;;;;;3.53;1.73;;;;;;;23.51;45.81;100167.53;4098612;29;20085;-59
2023/07/23 08:39:28;;;;;;;10.13;1.80;;;;;;;23.43;45.92;100161.69;4098449;29;20310;-57
2023/07/23 08:41:37;;;;;;;2.72;1.60;;;;;;;23.48;46.14;100159.66;4096693;28;20051;-59
2023/07/23 08:44:10;;;;;;;5.05;1.55;;;;;;;23.46;45.98;100161.53;4097567;29;20098;-59
2023/07/23 08:46:22;;;;;;;2.28;1.40;;;;;;;23.49;45.84;100166.72;4109608;28;20453;-59
2023/07/23 08:48:46;;;;;;;5.35;1.48;;;;;;;23.44;46.42;100164.28;4112211;28;20485;-59
2023/07/23 08:50:50;;;;;;;4.63;1.45;;;;;;;23.51;46.07;100164.88;4112843;28;20053;-59
2023/07/23 08:52:55;;;;;;;4.18;1.50;;;;;;;23.55;46.18;100160.28;4114192;28;20041;-59
2023/07/23 08:54:58;;;;;;;4.10;1.63;;;;;;;23.51;46.21;100162.22;4111964;28;20489;-59
2023/07/23 08:57:03;;;;;;;3.30;1.40;;;;;;;23.54;46.14;100164.72;4112863;28;20602;-59
2023/07/23 08:59:09;;;;;;;5.35;1.73;;;;;;;23.63;46.24;100159.00;4113599;28;20043;-59
2023/07/23 09:01:14;;;;;;;6.18;1.67;;;;;;;23.52;46.38;100163.91;4114524;28;20043;-59
2023/07/23 09:03:21;;;;;;;3.42;1.35;;;;;;;23.58;46.28;100155.69;4113401;28;20043;-59
2023/07/23 09:05:23;;;;;;;4.05;1.42;;;;;;;23.62;46.35;100159.94;4113789;28;20097;-59
2023/07/23 09:07:26;;;;;;;5.47;1.25;;;;;;;23.63;46.59;100164.31;4097402;28;20143;-59
2023/07/23 09:09:29;;;;;;;5.53;1.90;;;;;;;23.81;46.34;100153.78;4113252;28;20097;-59
2023/07/23 09:11:33;;;;;;;2.88;1.17;;;;;;;23.84;46.35;100153.66;4108813;28;20290;-59
2023/07/23 09:13:36;;;;;;;2.10;1.23;;;;;;;23.87;46.30;100145.56;4114091;28;20117;-59
2023/07/23 09:15:40;;;;;;;2.30;1.37;;;;;;;23.88;46.01;100156.13;4111846;28;20043;-59
2023/07/23 09:17:43;;;;;;;;;;;;;;;23.92;46.09;100148.88;4113786;28;20335;-59
2023/07/23 09:19:47;;;;;;;4.38;1.70;;;;;;;23.91;45.89;100144.50;4113281;28;19921;-59
2023/07/23 09:21:50;;;;;;;3.58;1.83;;;;;;;24.00;45.96;100160.00;4114298;28;20066;-59
2023/07/23 09:23:55;;;;;;;7.55;1.60;;;;;;;24.07;46.19;100149.97;4113886;28;20039;-59
2023/07/23 09:25:58;;;;;;;5.95;2.10;;;;;;;24.17;45.31;100139.78;4112847;28;20049;-59
2023/07/23 09:28:01;;;;;;;6.57;1.63;;;;;;;24.15;45.49;100139.84;4114332;28;20082;-59
2023/07/23 09:30:05;;;;;;;2.22;1.48;;;;;;;24.23;45.59;100140.31;4113544;28;20034;-59
2023/07/23 09:32:23;;;;;;;4.78;1.60;;;;;;;24.30;45.06;100143.56;4111623;28;20047;-59
2023/07/23 09:34:27;;;;;;;4.45;1.50;;;;;;;24.29;45.50;100146.28;4111250;28;20382;-59
2023/07/23 09:36:30;;;;;;;5.05;1.58;;;;;;;24.35;45.54;100141.53;4113397;28;20496;-62
2023/07/23 09:38:34;;;;;;;4.13;1.63;;;;;;;24.38;45.43;100136.06;4112385;28;20086;-59